sensor_id;sensor_type;location;lat;lon;timestamp;pressure;altitude;pressure_sealevel;temperature;humidity
4830;BME280;2429;52.586;14.322;2022-08-03T13:44:11;101409.19;;;33.73;19.41
4830;BME280;2429;52.586;14.322;2022-08-03T13:46:56;101412.06;;;33.90;19.29
4830;BME280;2429;52.586;14.322;2022-08-03T13:49:23;101411.84;;;33.68;19.42
4830;BME280;2429;52.586;14.322;2022-08-03T13:51:49;101407.22;;;33.21;19.60
4830;BME280;2429;52.586;14.322;2022-08-03T13:54:17;101401.19;;;33.31;19.70
4830;BME280;2429;52.586;14.322;2022-08-03T13:56:45;101402.38;;;33.47;19.48
4830;BME280;2429;52.586;14.322;2022-08-03T13:59:23;101395.09;;;33.64;19.21
4830;BME280;2429;52.586;14.322;2022-08-03T14:01:51;101388.81;;;33.64;18.64
4830;BME280;2429;52.586;14.322;2022-08-03T14:04:21;101389.88;;;33.63;19.56
4830;BME280;2429;52.586;14.322;2022-08-03T14:06:48;101397.03;;;33.52;19.33
4830;BME280;2429;52.586;14.322;2022-08-03T14:09:15;101388.25;;;33.26;19.39
4830;BME280;2429;52.586;14.322;2022-08-03T14:11:43;101384.97;;;33.13;19.89
4830;BME280;2429;52.586;14.322;2022-08-03T14:14:32;101384.31;;;32.87;20.01
4830;BME280;2429;52.586;14.322;2022-08-03T14:16:59;101384.47;;;33.04;19.62
4830;BME280;2429;52.586;14.322;2022-08-03T14:19:26;101383.72;;;32.85;19.74
4830;BME280;2429;52.586;14.322;2022-08-03T14:21:54;101382.16;;;32.77;19.48
4830;BME280;2429;52.586;14.322;2022-08-03T14:24:32;101379.75;;;33.11;19.90
4830;BME280;2429;52.586;14.322;2022-08-03T14:26:59;101378.16;;;33.15;19.78
4830;BME280;2429;52.586;14.322;2022-08-03T14:29:34;101379.03;;;33.16;19.78
4830;BME280;2429;52.586;14.322;2022-08-03T14:32:01;101375.19;;;33.17;19.93
4830;BME280;2429;52.586;14.322;2022-08-03T14:34:38;101370.72;;;33.10;20.22
4830;BME280;2429;52.586;14.322;2022-08-03T14:37:05;101374.88;;;33.01;20.19
4830;BME280;2429;52.586;14.322;2022-08-03T14:39:32;101376.53;;;32.90;20.33
4830;BME280;2429;52.586;14.322;2022-08-03T14:42:19;101378.91;;;32.45;20.66
4830;BME280;2429;52.586;14.322;2022-08-03T14:44:46;101383.53;;;32.44;21.21
4830;BME280;2429;52.586;14.322;2022-08-03T14:47:13;101383.06;;;32.47;21.14
4830;BME280;2429;52.586;14.322;2022-08-03T14:49:41;101380.91;;;32.37;21.16
4830;BME280;2429;52.586;14.322;2022-08-03T14:52:28;101384.16;;;32.28;20.94
4830;BME280;2429;52.586;14.322;2022-08-03T14:54:55;101384.47;;;32.19;21.27
4830;BME280;2429;52.586;14.322;2022-08-03T14:57:22;101386.97;;;32.21;20.95
4830;BME280;2429;52.586;14.322;2022-08-03T14:59:49;101377.53;;;31.93;21.49
4830;BME280;2429;52.586;14.322;2022-08-03T15:02:23;101375.16;;;31.97;21.37
4830;BME280;2429;52.586;14.322;2022-08-03T15:04:51;101369.66;;;32.15;21.08
4830;BME280;2429;52.586;14.322;2022-08-03T15:07:18;101375.16;;;32.27;20.95
4830;BME280;2429;52.586;14.322;2022-08-03T15:09:46;101363.25;;;32.40;20.44
4830;BME280;2429;52.586;14.322;2022-08-03T15:12:14;101366.97;;;32.27;21.18
4830;BME280;2429;52.586;14.322;2022-08-03T15:14:41;101357.00;;;32.39;21.40
4830;BME280;2429;52.586;14.322;2022-08-03T15:17:08;101353.75;;;32.31;20.74
4830;BME280;2429;52.586;14.322;2022-08-03T15:19:35;101351.63;;;32.02;21.00
4830;BME280;2429;52.586;14.322;2022-08-03T15:22:22;101357.78;;;31.98;21.40
4830;BME280;2429;52.586;14.322;2022-08-03T15:25:03;101352.59;;;32.08;21.17
4830;BME280;2429;52.586;14.322;2022-08-03T15:27:51;101359.97;;;32.19;21.26
4830;BME280;2429;52.586;14.322;2022-08-03T15:30:30;101350.19;;;32.00;21.17
4830;BME280;2429;52.586;14.322;2022-08-03T15:32:59;101347.41;;;31.88;21.21
4830;BME280;2429;52.586;14.322;2022-08-03T15:35:26;101348.34;;;31.63;21.52
4830;BME280;2429;52.586;14.322;2022-08-03T15:37:54;101341.97;;;31.51;21.84
4830;BME280;2429;52.586;14.322;2022-08-03T15:40:21;101344.34;;;31.47;22.43
4830;BME280;2429;52.586;14.322;2022-08-03T15:42:48;101345.22;;;31.60;22.46
4830;BME280;2429;52.586;14.322;2022-08-03T15:45:15;101338.16;;;31.59;21.70
4830;BME280;2429;52.586;14.322;2022-08-03T15:47:46;101335.63;;;31.57;21.74
4830;BME280;2429;52.586;14.322;2022-08-03T15:50:13;101340.19;;;31.63;22.74
4830;BME280;2429;52.586;14.322;2022-08-03T15:52:40;101342.75;;;31.58;23.14
4830;BME280;2429;52.586;14.322;2022-08-03T15:55:07;101328.75;;;31.36;22.21
4830;BME280;2429;52.586;14.322;2022-08-03T15:57:40;101333.97;;;31.56;22.64
4830;BME280;2429;52.586;14.322;2022-08-03T16:00:28;101331.91;;;31.33;22.66
4830;BME280;2429;52.586;14.322;2022-08-03T16:02:59;101340.22;;;31.19;22.27
4830;BME280;2429;52.586;14.322;2022-08-03T16:05:26;101333.19;;;31.12;22.38
4830;BME280;2429;52.586;14.322;2022-08-03T16:07:53;101333.28;;;31.24;22.49
4830;BME280;2429;52.586;14.322;2022-08-03T16:10:30;101334.72;;;31.26;22.66
4830;BME280;2429;52.586;14.322;2022-08-03T16:12:57;101333.50;;;31.22;22.23
4830;BME280;2429;52.586;14.322;2022-08-03T16:15:25;101339.59;;;30.99;22.41
4830;BME280;2429;52.586;14.322;2022-08-03T16:17:52;101331.22;;;31.00;22.30
4830;BME280;2429;52.586;14.322;2022-08-03T16:20:20;101331.38;;;31.06;21.96
4830;BME280;2429;52.586;14.322;2022-08-03T16:23:00;101333.16;;;30.93;22.38
4830;BME280;2429;52.586;14.322;2022-08-03T16:25:38;101324.63;;;30.90;22.68
4830;BME280;2429;52.586;14.322;2022-08-03T16:28:05;101325.50;;;30.83;22.95
4830;BME280;2429;52.586;14.322;2022-08-03T16:30:43;101323.81;;;30.82;23.13
4830;BME280;2429;52.586;14.322;2022-08-03T16:33:10;101325.06;;;30.87;22.79
4830;BME280;2429;52.586;14.322;2022-08-03T16:35:43;101319.41;;;30.88;22.96
4830;BME280;2429;52.586;14.322;2022-08-03T16:38:11;101325.38;;;30.97;22.81
4830;BME280;2429;52.586;14.322;2022-08-03T16:40:45;101329.38;;;30.94;22.82
4830;BME280;2429;52.586;14.322;2022-08-03T16:43:13;101323.78;;;30.89;23.08
4830;BME280;2429;52.586;14.322;2022-08-03T16:45:46;101327.78;;;30.87;23.19
4830;BME280;2429;52.586;14.322;2022-08-03T16:48:13;101315.88;;;30.88;23.56
4830;BME280;2429;52.586;14.322;2022-08-03T16:50:40;101318.22;;;30.84;23.89
4830;BME280;2429;52.586;14.322;2022-08-03T16:53:08;101328.41;;;30.82;24.31
4830;BME280;2429;52.586;14.322;2022-08-03T16:55:42;101317.66;;;30.69;22.92
4830;BME280;2429;52.586;14.322;2022-08-03T16:58:20;101322.88;;;30.70;22.87
4830;BME280;2429;52.586;14.322;2022-08-03T17:01:00;101318.53;;;30.69;23.24
4830;BME280;2429;52.586;14.322;2022-08-03T17:03:48;101318.94;;;30.66;23.32
4830;BME280;2429;52.586;14.322;2022-08-03T17:06:29;101323.50;;;30.72;24.96
4830;BME280;2429;52.586;14.322;2022-08-03T17:09:01;101328.94;;;30.72;24.91
4830;BME280;2429;52.586;14.322;2022-08-03T17:11:29;101327.09;;;30.66;24.67
4830;BME280;2429;52.586;14.322;2022-08-03T17:13:58;101329.09;;;30.52;25.25
4830;BME280;2429;52.586;14.322;2022-08-03T17:16:25;101339.22;;;30.38;24.90
4830;BME280;2429;52.586;14.322;2022-08-03T17:18:57;101333.94;;;30.43;24.36
4830;BME280;2429;52.586;14.322;2022-08-03T17:21:30;101331.66;;;30.47;24.11
4830;BME280;2429;52.586;14.322;2022-08-03T17:24:15;101337.53;;;30.44;24.89
4830;BME280;2429;52.586;14.322;2022-08-03T17:26:47;101337.63;;;30.30;24.64
4830;BME280;2429;52.586;14.322;2022-08-03T17:29:16;101339.66;;;30.28;25.28
4830;BME280;2429;52.586;14.322;2022-08-03T17:31:43;101336.31;;;30.33;25.76
4830;BME280;2429;52.586;14.322;2022-08-03T17:34:16;101339.06;;;30.26;25.97
4830;BME280;2429;52.586;14.322;2022-08-03T17:36:44;101340.31;;;30.24;26.25
4830;BME280;2429;52.586;14.322;2022-08-03T17:39:32;101338.69;;;30.23;26.14
4830;BME280;2429;52.586;14.322;2022-08-03T17:42:19;101344.13;;;30.23;25.54
4830;BME280;2429;52.586;14.322;2022-08-03T17:44:58;101348.13;;;30.13;26.23
4830;BME280;2429;52.586;14.322;2022-08-03T17:47:28;101338.34;;;30.06;26.45
4830;BME280;2429;52.586;14.322;2022-08-03T17:50:09;101347.41;;;29.93;27.22
4830;BME280;2429;52.586;14.322;2022-08-03T17:53:02;101355.97;;;29.90;27.64
4830;BME280;2429;52.586;14.322;2022-08-03T17:55:42;101360.59;;;29.83;27.68
4830;BME280;2429;52.586;14.322;2022-08-03T17:58:37;101351.84;;;29.74;28.09
4830;BME280;2429;52.586;14.322;2022-08-03T18:01:07;101362.09;;;29.65;28.61
4830;BME280;2429;52.586;14.322;2022-08-03T18:04:18;101345.88;;;29.52;29.15
4830;BME280;2429;52.586;14.322;2022-08-03T18:06:56;101346.94;;;29.37;29.17
4830;BME280;2429;52.586;14.322;2022-08-03T18:09:24;101351.53;;;29.30;29.47
4830;BME280;2429;52.586;14.322;2022-08-03T18:12:12;101360.72;;;29.22;30.79
4830;BME280;2429;52.586;14.322;2022-08-03T18:14:47;101356.75;;;29.12;31.18
4830;BME280;2429;52.586;14.322;2022-08-03T18:17:26;101361.34;;;29.04;32.83
4830;BME280;2429;52.586;14.322;2022-08-03T18:20:12;101358.03;;;28.89;31.97
4830;BME280;2429;52.586;14.322;2022-08-03T18:23:00;101361.16;;;28.79;32.48
4830;BME280;2429;52.586;14.322;2022-08-03T18:25:31;101356.38;;;28.68;32.71
4830;BME280;2429;52.586;14.322;2022-08-03T18:28:11;101354.88;;;28.52;33.73
4830;BME280;2429;52.586;14.322;2022-08-03T18:30:41;101360.88;;;28.34;33.37
4830;BME280;2429;52.586;14.322;2022-08-03T18:33:24;101357.28;;;28.13;33.47
4830;BME280;2429;52.586;14.322;2022-08-03T18:36:13;101375.06;;;27.94;34.24
4830;BME280;2429;52.586;14.322;2022-08-03T18:39:00;101369.19;;;27.77;34.29
4830;BME280;2429;52.586;14.322;2022-08-03T18:41:30;101372.66;;;27.64;35.15
4830;BME280;2429;52.586;14.322;2022-08-03T18:44:01;101374.63;;;27.49;34.54
4830;BME280;2429;52.586;14.322;2022-08-03T18:46:51;101377.00;;;27.30;34.96
4830;BME280;2429;52.586;14.322;2022-08-03T18:52:07;101377.44;;;27.06;37.00
4830;BME280;2429;52.586;14.322;2022-08-03T18:54:42;101376.41;;;26.85;37.66
4830;BME280;2429;52.586;14.322;2022-08-03T18:57:35;101374.88;;;26.76;38.09
4830;BME280;2429;52.586;14.322;2022-08-03T19:00:08;101378.50;;;26.61;38.51
4830;BME280;2429;52.586;14.322;2022-08-03T19:02:41;101380.31;;;26.54;38.52
4830;BME280;2429;52.586;14.322;2022-08-03T19:05:15;101379.59;;;26.45;39.08
4830;BME280;2429;52.586;14.322;2022-08-03T19:07:46;101384.34;;;26.28;39.28
4830;BME280;2429;52.586;14.322;2022-08-03T19:10:28;101382.78;;;26.19;39.46
4830;BME280;2429;52.586;14.322;2022-08-03T19:12:59;101387.47;;;25.95;39.06
4830;BME280;2429;52.586;14.322;2022-08-03T19:15:30;101390.56;;;25.92;38.91
4830;BME280;2429;52.586;14.322;2022-08-03T19:18:03;101393.25;;;25.77;39.75
4830;BME280;2429;52.586;14.322;2022-08-03T19:20:36;101394.00;;;25.71;39.81
4830;BME280;2429;52.586;14.322;2022-08-03T19:23:03;101395.66;;;25.57;40.37
4830;BME280;2429;52.586;14.322;2022-08-03T19:25:34;101388.13;;;25.53;40.63
4830;BME280;2429;52.586;14.322;2022-08-03T19:28:03;101390.44;;;25.41;40.44
4830;BME280;2429;52.586;14.322;2022-08-03T19:30:36;101395.34;;;25.37;40.22
4830;BME280;2429;52.586;14.322;2022-08-03T19:35:33;101388.84;;;25.17;41.05
4830;BME280;2429;52.586;14.322;2022-08-03T19:38:19;101392.09;;;25.04;41.52
4830;BME280;2429;52.586;14.322;2022-08-03T19:40:58;101395.53;;;24.98;41.25
4830;BME280;2429;52.586;14.322;2022-08-03T19:43:33;101387.53;;;25.04;41.76
4830;BME280;2429;52.586;14.322;2022-08-03T19:46:20;101399.91;;;24.99;41.02
4830;BME280;2429;52.586;14.322;2022-08-03T19:49:34;101400.28;;;24.96;40.93
4830;BME280;2429;52.586;14.322;2022-08-03T19:51:40;101397.44;;;24.89;41.35
4830;BME280;2429;52.586;14.322;2022-08-03T19:54:38;101398.47;;;24.88;41.64
4830;BME280;2429;52.586;14.322;2022-08-03T19:57:21;101400.56;;;24.78;41.61
4830;BME280;2429;52.586;14.322;2022-08-03T19:59:50;101396.75;;;24.72;41.64
4830;BME280;2429;52.586;14.322;2022-08-03T20:02:19;101389.44;;;24.58;42.14
4830;BME280;2429;52.586;14.322;2022-08-03T20:04:56;101390.81;;;24.53;42.13
4830;BME280;2429;52.586;14.322;2022-08-03T20:07:27;101401.09;;;24.50;41.83
4830;BME280;2429;52.586;14.322;2022-08-03T20:09:56;101398.25;;;24.43;42.38
4830;BME280;2429;52.586;14.322;2022-08-03T20:12:27;101396.94;;;24.39;42.46
4830;BME280;2429;52.586;14.322;2022-08-03T20:14:55;101397.28;;;24.36;42.62
4830;BME280;2429;52.586;14.322;2022-08-03T20:17:23;101391.75;;;24.29;42.89
4830;BME280;2429;52.586;14.322;2022-08-03T20:20:10;101392.03;;;24.11;42.74
4830;BME280;2429;52.586;14.322;2022-08-03T20:22:40;101403.13;;;24.08;42.75
4830;BME280;2429;52.586;14.322;2022-08-03T20:25:29;101393.22;;;24.09;43.34
4830;BME280;2429;52.586;14.322;2022-08-03T20:28:24;101400.00;;;23.96;42.84
4830;BME280;2429;52.586;14.322;2022-08-03T20:30:52;101394.41;;;24.06;43.94
4830;BME280;2429;52.586;14.322;2022-08-03T20:33:19;101390.13;;;23.89;43.97
4830;BME280;2429;52.586;14.322;2022-08-03T20:36:07;101394.63;;;23.88;44.12
4830;BME280;2429;52.586;14.322;2022-08-03T20:38:36;101391.94;;;23.88;44.59
4830;BME280;2429;52.586;14.322;2022-08-03T20:41:12;101396.16;;;23.74;43.80
4830;BME280;2429;52.586;14.322;2022-08-03T20:43:41;101396.53;;;23.71;43.93
4830;BME280;2429;52.586;14.322;2022-08-03T20:46:08;101398.84;;;23.74;43.50
4830;BME280;2429;52.586;14.322;2022-08-03T20:48:58;101388.47;;;23.71;44.06
4830;BME280;2429;52.586;14.322;2022-08-03T20:51:25;101388.50;;;23.63;43.72
4830;BME280;2429;52.586;14.322;2022-08-03T20:54:13;101394.88;;;23.62;43.69
4830;BME280;2429;52.586;14.322;2022-08-03T20:56:59;101391.19;;;23.55;44.62
4830;BME280;2429;52.586;14.322;2022-08-03T20:59:34;101393.75;;;23.48;44.53
4830;BME280;2429;52.586;14.322;2022-08-03T21:02:16;101391.22;;;23.46;45.64
4830;BME280;2429;52.586;14.322;2022-08-03T21:04:55;101398.44;;;23.46;45.32
4830;BME280;2429;52.586;14.322;2022-08-03T21:07:21;101401.13;;;23.29;45.75
4830;BME280;2429;52.586;14.322;2022-08-03T21:09:50;101396.97;;;23.19;46.29
4830;BME280;2429;52.586;14.322;2022-08-03T21:12:24;101390.59;;;23.11;46.77
4830;BME280;2429;52.586;14.322;2022-08-03T21:15:12;101392.44;;;23.11;46.26
4830;BME280;2429;52.586;14.322;2022-08-03T21:18:05;101406.00;;;23.01;45.78
4830;BME280;2429;52.586;14.322;2022-08-03T21:20:36;101406.50;;;22.96;46.24
4830;BME280;2429;52.586;14.322;2022-08-03T21:23:04;101408.66;;;22.85;47.24
4830;BME280;2429;52.586;14.322;2022-08-03T21:25:33;101400.78;;;22.58;47.54
4830;BME280;2429;52.586;14.322;2022-08-03T21:28:00;101404.13;;;22.60;47.13
4830;BME280;2429;52.586;14.322;2022-08-03T21:30:28;101398.88;;;22.51;47.51
4830;BME280;2429;52.586;14.322;2022-08-03T21:32:56;101396.69;;;22.46;47.55
4830;BME280;2429;52.586;14.322;2022-08-03T21:35:23;101403.41;;;22.42;47.33
4830;BME280;2429;52.586;14.322;2022-08-03T21:37:51;101401.56;;;22.42;47.46
4830;BME280;2429;52.586;14.322;2022-08-03T21:40:37;101403.69;;;22.31;47.52
4830;BME280;2429;52.586;14.322;2022-08-03T21:43:05;101406.53;;;22.29;47.71
4830;BME280;2429;52.586;14.322;2022-08-03T21:45:34;101403.56;;;22.06;47.51
4830;BME280;2429;52.586;14.322;2022-08-03T21:48:05;101407.28;;;22.13;48.17
4830;BME280;2429;52.586;14.322;2022-08-03T21:50:33;101403.66;;;21.88;48.98
4830;BME280;2429;52.586;14.322;2022-08-03T21:53:02;101404.00;;;21.85;48.74
4830;BME280;2429;52.586;14.322;2022-08-03T21:55:29;101399.66;;;21.84;48.39
4830;BME280;2429;52.586;14.322;2022-08-03T21:57:58;101404.84;;;21.85;48.13
4830;BME280;2429;52.586;14.322;2022-08-03T22:00:25;101406.41;;;21.70;48.91
4830;BME280;2429;52.586;14.322;2022-08-03T22:02:54;101409.47;;;21.75;48.97
4830;BME280;2429;52.586;14.322;2022-08-03T22:05:23;101412.53;;;21.62;49.25
4830;BME280;2429;52.586;14.322;2022-08-03T22:08:11;101413.25;;;21.64;48.80
4830;BME280;2429;52.586;14.322;2022-08-03T22:10:39;101410.25;;;21.67;48.83
4830;BME280;2429;52.586;14.322;2022-08-03T22:13:06;101413.75;;;21.68;48.74
4830;BME280;2429;52.586;14.322;2022-08-03T22:15:33;101412.53;;;21.62;49.29
4830;BME280;2429;52.586;14.322;2022-08-03T22:18:00;101411.56;;;21.63;49.13
4830;BME280;2429;52.586;14.322;2022-08-03T22:20:30;101419.28;;;21.66;48.93
4830;BME280;2429;52.586;14.322;2022-08-03T22:23:01;101412.69;;;21.61;49.34
4830;BME280;2429;52.586;14.322;2022-08-03T22:25:32;101413.69;;;21.60;49.28
4830;BME280;2429;52.586;14.322;2022-08-03T22:28:01;101406.72;;;21.67;49.15
4830;BME280;2429;52.586;14.322;2022-08-03T22:30:28;101409.53;;;21.65;49.29
4830;BME280;2429;52.586;14.322;2022-08-03T22:32:55;101410.81;;;21.53;49.70
4830;BME280;2429;52.586;14.322;2022-08-03T22:35:24;101408.78;;;21.47;49.84
4830;BME280;2429;52.586;14.322;2022-08-03T22:37:52;101409.28;;;21.50;49.90
4830;BME280;2429;52.586;14.322;2022-08-03T22:40:19;101411.53;;;21.37;50.06
4830;BME280;2429;52.586;14.322;2022-08-03T22:42:46;101413.44;;;21.45;50.14
4830;BME280;2429;52.586;14.322;2022-08-03T22:45:17;101407.03;;;21.37;50.70
4830;BME280;2429;52.586;14.322;2022-08-03T22:48:06;101420.44;;;21.37;50.50
4830;BME280;2429;52.586;14.322;2022-08-03T22:50:33;101424.34;;;21.25;50.03
4830;BME280;2429;52.586;14.322;2022-08-03T22:53:00;101418.47;;;21.21;50.66
4830;BME280;2429;52.586;14.322;2022-08-03T22:55:27;101418.47;;;21.21;50.58
4830;BME280;2429;52.586;14.322;2022-08-03T22:57:54;101423.75;;;21.13;50.05
4830;BME280;2429;52.586;14.322;2022-08-03T23:00:22;101425.81;;;21.01;49.14
4830;BME280;2429;52.586;14.322;2022-08-03T23:02:49;101420.84;;;21.07;48.71
4830;BME280;2429;52.586;14.322;2022-08-03T23:05:21;101418.47;;;21.21;49.32
4830;BME280;2429;52.586;14.322;2022-08-03T23:08:09;101418.31;;;21.23;49.41
4830;BME280;2429;52.586;14.322;2022-08-03T23:10:38;101418.97;;;21.25;49.64
4830;BME280;2429;52.586;14.322;2022-08-03T23:13:13;101424.59;;;21.14;50.21
4830;BME280;2429;52.586;14.322;2022-08-03T23:15:41;101428.41;;;21.11;50.02
4830;BME280;2429;52.586;14.322;2022-08-03T23:18:12;101428.88;;;21.07;50.25
4830;BME280;2429;52.586;14.322;2022-08-03T23:20:40;101425.81;;;21.01;50.43
4830;BME280;2429;52.586;14.322;2022-08-03T23:23:10;101423.75;;;20.95;50.93
4830;BME280;2429;52.586;14.322;2022-08-03T23:25:39;101424.66;;;20.86;50.78
4830;BME280;2429;52.586;14.322;2022-08-03T23:28:07;101427.25;;;20.78;50.79
4830;BME280;2429;52.586;14.322;2022-08-03T23:30:36;101426.03;;;20.72;51.46
4830;BME280;2429;52.586;14.322;2022-08-03T23:33:03;101427.00;;;20.71;51.50
4830;BME280;2429;52.586;14.322;2022-08-03T23:35:30;101423.41;;;20.62;51.33
4830;BME280;2429;52.586;14.322;2022-08-03T23:38:36;101423.84;;;20.58;51.64
4830;BME280;2429;52.586;14.322;2022-08-03T23:41:03;101416.59;;;20.50;51.48
4830;BME280;2429;52.586;14.322;2022-08-03T23:43:31;101422.13;;;20.39;51.21
4830;BME280;2429;52.586;14.322;2022-08-03T23:46:18;101421.16;;;20.40;50.99
4830;BME280;2429;52.586;14.322;2022-08-03T23:48:46;101423.03;;;20.29;51.87
4830;BME280;2429;52.586;14.322;2022-08-03T23:51:26;101422.88;;;20.31;51.80
4830;BME280;2429;52.586;14.322;2022-08-03T23:53:58;101420.56;;;20.18;52.31
4830;BME280;2429;52.586;14.322;2022-08-03T23:56:40;101413.50;;;20.17;52.15
